createdAt,value
2023-03-17T00:00:13.835Z,0.00
2023-03-17T00:01:13.810Z,0.00
2023-03-17T00:02:13.862Z,0.00
2023-03-17T00:03:13.775Z,0.00
2023-03-17T00:04:14.763Z,0.00
2023-03-17T00:05:14.792Z,0.00
2023-03-17T00:06:13.742Z,0.00
2023-03-17T00:07:14.725Z,0.00
2023-03-17T00:08:14.274Z,0.00
2023-03-17T00:09:13.708Z,0.00
2023-03-17T00:10:13.728Z,0.00
2023-03-17T00:11:13.733Z,0.00
2023-03-17T00:12:13.699Z,0.00
2023-03-17T00:13:13.698Z,0.00
2023-03-17T00:14:13.743Z,0.00
2023-03-17T00:15:14.499Z,0.00
2023-03-17T00:16:13.731Z,0.00
2023-03-17T00:17:13.663Z,0.00
2023-03-17T00:18:13.736Z,0.00
2023-03-17T00:19:13.743Z,0.00
2023-03-17T00:20:13.753Z,0.00
2023-03-17T00:21:13.779Z,0.00
2023-03-17T00:22:13.625Z,0.00
2023-03-17T00:23:13.622Z,0.00
2023-03-17T00:24:14.985Z,0.00
2023-03-17T00:25:14.549Z,0.00
2023-03-17T00:26:14.443Z,0.00
2023-03-17T00:27:14.599Z,0.00
2023-03-17T00:28:14.513Z,0.00
2023-03-17T00:29:14.414Z,0.00
2023-03-17T00:30:14.581Z,0.00
2023-03-17T00:31:13.646Z,0.00
2023-03-17T00:32:14.384Z,0.00
2023-03-17T00:33:13.552Z,0.00
2023-03-17T00:34:14.516Z,0.00
2023-03-17T00:35:13.538Z,0.00
2023-03-17T00:36:13.538Z,0.00
2023-03-17T00:37:14.408Z,0.00
2023-03-17T00:38:14.070Z,0.00
2023-03-17T00:40:23.735Z,0.00
2023-03-17T00:41:23.719Z,0.00
2023-03-17T00:42:23.933Z,0.00
2023-03-17T00:43:23.727Z,0.00
2023-03-17T00:44:23.980Z,0.00
2023-03-17T00:45:24.159Z,0.00
2023-03-17T00:46:24.219Z,0.00
2023-03-17T00:47:23.626Z,0.00
2023-03-17T00:48:23.609Z,0.00
2023-03-17T00:49:23.756Z,0.00
2023-03-17T00:50:23.594Z,0.00
2023-03-17T00:51:23.640Z,0.00
2023-03-17T00:52:23.929Z,0.00
2023-03-17T00:53:24.001Z,0.00
2023-03-17T00:54:23.604Z,0.00
2023-03-17T00:55:23.616Z,0.00
2023-03-17T00:56:23.546Z,0.00
2023-03-17T00:57:23.626Z,0.00
2023-03-17T00:58:23.635Z,0.00
2023-03-17T00:59:23.814Z,0.00
2023-03-17T01:00:23.823Z,0.00
2023-03-17T01:01:24.125Z,0.00
2023-03-17T01:02:23.911Z,0.00
2023-03-17T01:03:23.644Z,0.00
2023-03-17T01:04:24.163Z,0.00
2023-03-17T01:05:23.853Z,0.00
2023-03-17T01:06:24.065Z,0.00
2023-03-17T01:07:24.091Z,0.00
2023-03-17T01:08:24.114Z,0.00
2023-03-17T01:09:23.681Z,0.00
2023-03-17T01:10:24.100Z,0.00
2023-03-17T01:11:24.271Z,0.00
2023-03-17T01:12:24.318Z,0.00
2023-03-17T01:13:23.908Z,0.00
2023-03-17T01:14:23.943Z,0.00
2023-03-17T01:15:23.951Z,0.00
2023-03-17T01:16:24.282Z,0.00
2023-03-17T01:17:23.521Z,0.00
2023-03-17T01:18:24.012Z,0.00
2023-03-17T01:19:23.412Z,0.00
2023-03-17T01:20:23.949Z,0.00
2023-03-17T01:21:23.389Z,0.00
2023-03-17T01:22:23.379Z,0.00
2023-03-17T01:23:23.969Z,0.00
2023-03-17T01:24:23.783Z,0.00
2023-03-17T01:25:23.988Z,0.00
2023-03-17T01:26:25.714Z,0.00
2023-03-17T01:27:23.788Z,0.00
2023-03-17T01:28:23.588Z,0.00
2023-03-17T01:29:23.846Z,0.00
2023-03-17T01:30:24.193Z,0.00
2023-03-17T01:31:24.410Z,0.00
2023-03-17T01:32:23.307Z,0.00
2023-03-17T01:33:23.340Z,0.00
2023-03-17T01:34:23.358Z,0.00
2023-03-17T01:35:23.447Z,0.00
2023-03-17T01:36:23.273Z,0.00
2023-03-17T01:37:23.479Z,0.00
2023-03-17T01:38:23.257Z,0.00
2023-03-17T01:39:23.543Z,0.00
2023-03-17T01:40:23.601Z,0.00
2023-03-17T01:41:23.695Z,0.00
2023-03-17T01:42:23.579Z,0.00
2023-03-17T01:43:23.930Z,0.00
2023-03-17T01:44:23.917Z,0.00
2023-03-17T01:45:23.298Z,0.00
2023-03-17T01:46:23.297Z,0.00
2023-03-17T01:47:23.356Z,0.00
2023-03-17T01:48:23.569Z,0.00
2023-03-17T01:49:23.202Z,0.00
2023-03-17T01:50:23.987Z,0.00
2023-03-17T01:51:23.644Z,0.00
2023-03-17T01:52:23.166Z,0.00
2023-03-17T01:53:23.202Z,0.00
2023-03-17T01:54:23.417Z,0.00
2023-03-17T01:55:23.163Z,0.00
2023-03-17T01:56:23.417Z,0.00
2023-03-17T01:57:23.790Z,0.00
2023-03-17T01:58:23.114Z,0.00
2023-03-17T01:59:23.819Z,0.00
2023-03-17T02:00:24.010Z,0.00
2023-03-17T02:01:24.097Z,0.00
2023-03-17T02:02:23.474Z,0.00
2023-03-17T02:03:23.466Z,0.00
2023-03-17T02:04:23.666Z,0.00
2023-03-17T02:05:23.089Z,0.00
2023-03-17T02:06:23.063Z,0.00
2023-03-17T02:07:23.109Z,0.00
2023-03-17T02:08:23.053Z,0.00
2023-03-17T02:09:23.112Z,0.00
2023-03-17T02:10:23.084Z,0.00
2023-03-17T02:11:23.030Z,0.00
2023-03-17T02:12:23.061Z,0.00
2023-03-17T02:13:23.072Z,0.00
2023-03-17T02:14:23.072Z,0.00
2023-03-17T02:15:23.016Z,0.00
2023-03-17T02:16:23.112Z,0.00
2023-03-17T02:17:23.096Z,0.00
2023-03-17T02:18:23.104Z,0.00
2023-03-17T02:19:23.013Z,0.00
2023-03-17T02:20:22.961Z,0.00
2023-03-17T02:21:22.991Z,0.00
2023-03-17T02:22:23.118Z,0.00
2023-03-17T02:23:23.141Z,0.00
2023-03-17T02:24:23.139Z,0.00
2023-03-17T02:25:22.930Z,0.00
2023-03-17T02:26:22.949Z,0.00
2023-03-17T02:27:22.972Z,0.00
2023-03-17T02:28:22.929Z,0.00
2023-03-17T02:29:23.052Z,0.00
2023-03-17T02:30:23.058Z,0.00
2023-03-17T02:31:23.290Z,0.00
2023-03-17T02:32:22.877Z,0.00
2023-03-17T02:33:22.877Z,0.00
2023-03-17T02:34:22.871Z,0.00
2023-03-17T02:35:22.888Z,0.00
2023-03-17T02:36:22.933Z,0.00
2023-03-17T02:37:22.858Z,0.00
2023-03-17T02:38:22.853Z,0.00
2023-03-17T02:39:22.843Z,0.00
2023-03-17T02:40:22.855Z,0.00
2023-03-17T02:41:22.839Z,0.00
2023-03-17T02:42:22.852Z,0.00
2023-03-17T02:43:22.857Z,0.00
2023-03-17T02:44:22.867Z,0.00
2023-03-17T02:45:22.869Z,0.00
2023-03-17T02:46:22.930Z,0.00
2023-03-17T02:47:22.970Z,0.00
2023-03-17T02:48:22.985Z,0.00
2023-03-17T02:49:22.976Z,0.00
2023-03-17T02:50:23.010Z,0.00
2023-03-17T02:51:24.237Z,0.00
2023-03-17T02:52:22.788Z,0.00
2023-03-17T02:53:22.788Z,0.00
2023-03-17T02:54:22.734Z,0.00
2023-03-17T02:55:23.056Z,0.00
2023-03-17T02:56:22.964Z,0.00
2023-03-17T02:57:22.877Z,0.00
2023-03-17T02:58:23.157Z,0.00
2023-03-17T02:59:23.167Z,0.00
2023-03-17T03:00:22.845Z,0.00
2023-03-17T03:01:23.100Z,0.00
2023-03-17T03:02:22.808Z,0.00
2023-03-17T03:03:22.827Z,0.00
2023-03-17T03:04:23.196Z,0.00
2023-03-17T03:05:22.797Z,0.00
2023-03-17T03:06:22.878Z,0.00
2023-03-17T03:07:22.671Z,0.00
2023-03-17T03:08:22.817Z,0.00
2023-03-17T03:09:22.833Z,0.00
2023-03-17T03:10:22.642Z,0.00
2023-03-17T03:11:22.837Z,0.00
2023-03-17T03:12:23.256Z,0.00
2023-03-17T03:13:23.264Z,0.00
2023-03-17T03:14:23.144Z,0.00
2023-03-17T03:15:23.277Z,0.00
2023-03-17T03:16:23.096Z,0.00
2023-03-17T03:17:23.325Z,0.00
2023-03-17T03:18:22.576Z,0.00
2023-03-17T03:19:22.593Z,0.00
2023-03-17T03:20:22.602Z,0.00
2023-03-17T03:21:22.595Z,0.00
2023-03-17T03:22:22.581Z,0.00
2023-03-17T03:23:22.600Z,0.00
2023-03-17T03:24:22.534Z,0.00
2023-03-17T03:25:22.726Z,0.00
2023-03-17T03:26:22.724Z,0.00
2023-03-17T03:27:22.743Z,0.00
2023-03-17T03:28:22.573Z,0.00
2023-03-17T03:29:22.758Z,0.00
2023-03-17T03:30:22.974Z,0.00
2023-03-17T03:31:22.568Z,0.00
2023-03-17T03:32:22.975Z,0.00
2023-03-17T03:33:22.483Z,0.00
2023-03-17T03:34:23.076Z,0.00
2023-03-17T03:35:22.800Z,0.00
2023-03-17T03:36:22.791Z,0.00
2023-03-17T03:37:23.002Z,0.00
2023-03-17T03:38:22.482Z,0.00
2023-03-17T03:39:22.991Z,0.00
2023-03-17T03:40:23.024Z,0.00
2023-03-17T03:41:22.827Z,0.00
2023-03-17T03:42:23.037Z,0.00
2023-03-17T03:43:24.241Z,0.00
2023-03-17T03:44:23.387Z,0.00
2023-03-17T03:45:22.447Z,0.00
2023-03-17T03:46:22.694Z,0.00
2023-03-17T03:47:22.467Z,0.00
2023-03-17T03:48:23.248Z,0.00
2023-03-17T03:49:22.768Z,0.00
2023-03-17T03:50:22.357Z,0.00
2023-03-17T03:51:22.376Z,0.00
2023-03-17T03:52:23.365Z,0.00
2023-03-17T03:53:22.694Z,0.00
2023-03-17T03:54:22.594Z,0.00
2023-03-17T03:55:23.282Z,0.00
2023-03-17T03:56:22.596Z,0.00
2023-03-17T03:57:22.512Z,0.00
2023-03-17T03:58:22.313Z,0.00
2023-03-17T03:59:22.337Z,0.00
2023-03-17T04:00:22.289Z,0.00
2023-03-17T04:01:22.330Z,0.00
2023-03-17T04:02:22.410Z,0.00
2023-03-17T04:03:22.360Z,0.00
2023-03-17T04:04:22.477Z,0.00
2023-03-17T04:05:22.452Z,0.00
2023-03-17T04:06:22.273Z,0.00
2023-03-17T04:07:22.584Z,0.00
2023-03-17T04:08:22.589Z,0.00
2023-03-17T04:09:22.225Z,0.00
2023-03-17T04:10:22.221Z,0.00
2023-03-17T04:11:22.225Z,0.00
2023-03-17T04:12:23.663Z,0.00
2023-03-17T04:13:22.320Z,0.00
2023-03-17T04:14:22.328Z,0.00
2023-03-17T04:15:22.427Z,0.00
2023-03-17T04:16:22.523Z,0.00
2023-03-17T04:17:22.537Z,0.00
2023-03-17T04:18:22.239Z,0.00
2023-03-17T04:19:22.616Z,0.00
2023-03-17T04:20:22.455Z,0.00
2023-03-17T04:21:22.588Z,0.00
2023-03-17T04:22:22.776Z,0.00
2023-03-17T04:23:22.798Z,0.00
2023-03-17T04:24:22.800Z,0.00
2023-03-17T04:25:22.115Z,0.00
2023-03-17T04:26:22.113Z,0.00
2023-03-17T04:27:22.107Z,0.00
2023-03-17T04:28:22.114Z,0.00
2023-03-17T04:29:22.105Z,0.00
2023-03-17T04:30:22.116Z,0.00
2023-03-17T04:31:22.162Z,0.00
2023-03-17T04:32:22.042Z,0.00
2023-03-17T04:33:22.053Z,0.00
2023-03-17T04:34:22.249Z,0.00
2023-03-17T04:35:22.043Z,0.00
2023-03-17T04:36:22.261Z,0.00
2023-03-17T04:37:22.052Z,0.00
2023-03-17T04:38:22.064Z,0.00
2023-03-17T04:39:22.065Z,0.00
2023-03-17T04:40:22.091Z,0.00
2023-03-17T04:41:22.087Z,0.00
2023-03-17T04:42:22.188Z,0.00
2023-03-17T04:43:22.214Z,0.00
2023-03-17T04:44:22.217Z,0.00
2023-03-17T04:45:22.001Z,0.00
2023-03-17T04:46:22.122Z,0.00
2023-03-17T04:47:22.219Z,0.00
2023-03-17T04:48:22.222Z,0.00
2023-03-17T04:49:22.237Z,0.00
2023-03-17T04:50:22.242Z,0.00
2023-03-17T04:51:21.948Z,0.00
2023-03-17T04:52:22.047Z,0.00
2023-03-17T04:53:22.387Z,0.00
2023-03-17T04:54:22.391Z,0.00
2023-03-17T04:55:22.380Z,0.00
2023-03-17T04:56:22.398Z,0.00
2023-03-17T04:57:22.398Z,0.00
2023-03-17T04:58:30.484Z,0.00
2023-03-17T04:59:22.021Z,0.00
2023-03-17T05:00:22.335Z,0.00
2023-03-17T05:01:22.247Z,0.00
2023-03-17T05:02:21.913Z,0.00
2023-03-17T05:03:27.327Z,0.00
2023-03-17T05:04:31.350Z,0.00
2023-03-17T05:05:21.827Z,0.00
2023-03-17T05:06:21.846Z,0.00
2023-03-17T05:07:21.953Z,0.00
2023-03-17T05:08:21.966Z,0.00
2023-03-17T05:09:22.089Z,0.00
2023-03-17T05:10:21.967Z,0.00
2023-03-17T05:11:22.090Z,0.00
2023-03-17T05:12:21.971Z,4.00
2023-03-17T05:13:22.316Z,1.00
2023-03-17T05:14:21.781Z,1.00
2023-03-17T05:15:22.318Z,1.00
2023-03-17T05:16:21.831Z,9.00
2023-03-17T05:17:22.171Z,5.00
2023-03-17T05:18:21.832Z,5.00
2023-03-17T05:19:21.935Z,10.00
2023-03-17T05:20:21.949Z,10.00
2023-03-17T05:21:21.966Z,18.00
2023-03-17T05:22:22.036Z,35.00
2023-03-17T05:23:21.771Z,31.00
2023-03-17T05:24:22.181Z,41.00
2023-03-17T05:25:22.193Z,47.00
2023-03-17T05:26:21.683Z,46.00
2023-03-17T05:27:21.714Z,46.00
2023-03-17T05:28:21.903Z,68.00
2023-03-17T05:29:22.414Z,77.00
2023-03-17T05:30:22.215Z,90.00
2023-03-17T05:31:21.752Z,104.00
2023-03-17T05:32:21.660Z,124.00
2023-03-17T05:33:22.027Z,132.00
2023-03-17T05:34:22.110Z,145.00
2023-03-17T05:35:22.323Z,170.00
2023-03-17T05:36:22.459Z,183.00
2023-03-17T05:37:21.930Z,202.00
2023-03-17T05:38:21.613Z,231.00
2023-03-17T05:39:21.741Z,260.00
2023-03-17T05:40:23.819Z,277.00
2023-03-17T05:41:22.567Z,314.00
2023-03-17T05:42:22.157Z,338.00
2023-03-17T05:43:21.569Z,372.00
2023-03-17T05:44:22.588Z,396.00
2023-03-17T05:45:22.495Z,447.00
2023-03-17T05:46:21.749Z,472.00
2023-03-17T05:47:21.987Z,527.00
2023-03-17T05:48:22.464Z,560.00
2023-03-17T05:49:23.028Z,602.00
2023-03-17T05:50:21.556Z,667.00
2023-03-17T05:51:21.537Z,701.00
2023-03-17T05:52:21.538Z,748.00
2023-03-17T05:53:21.557Z,808.00
2023-03-17T05:54:21.496Z,851.00
2023-03-17T05:55:21.476Z,903.00
2023-03-17T05:56:21.457Z,968.00
2023-03-17T05:57:21.578Z,1027.00
2023-03-17T05:58:21.597Z,1055.00
2023-03-17T05:59:21.457Z,1105.00
2023-03-17T06:00:21.712Z,1123.00
2023-03-17T06:01:21.607Z,1134.00
2023-03-17T06:02:21.499Z,1299.00
2023-03-17T06:03:21.944Z,1379.00
2023-03-17T06:04:21.405Z,1359.00
2023-03-17T06:05:21.437Z,1368.00
2023-03-17T06:06:21.640Z,1502.00
2023-03-17T06:07:22.067Z,1362.00
2023-03-17T06:08:21.657Z,1317.00
2023-03-17T06:09:21.998Z,1376.00
2023-03-17T06:10:21.665Z,1382.00
2023-03-17T06:11:22.118Z,1438.00
2023-03-17T06:12:22.206Z,1496.00
2023-03-17T06:13:21.895Z,1490.00
2023-03-17T06:14:21.762Z,1730.00
2023-03-17T06:15:22.135Z,1794.00
2023-03-17T06:16:21.402Z,1878.00
2023-03-17T06:17:21.335Z,2014.00
2023-03-17T06:18:21.304Z,1992.00
2023-03-17T06:19:21.326Z,2057.00
2023-03-17T06:20:21.324Z,2044.00
2023-03-17T06:21:21.293Z,2046.00
2023-03-17T06:22:21.336Z,2217.00
2023-03-17T06:23:21.284Z,2293.00
2023-03-17T06:24:21.281Z,2165.00
2023-03-17T06:25:21.268Z,2305.00
2023-03-17T06:26:21.262Z,2356.00
2023-03-17T06:27:22.292Z,2395.00
2023-03-17T06:28:21.283Z,2423.00
2023-03-17T06:29:21.296Z,2443.00
2023-03-17T06:30:21.232Z,2431.00
2023-03-17T06:31:21.459Z,2439.00
2023-03-17T06:32:21.427Z,2399.00
2023-03-17T06:33:21.441Z,2409.00
2023-03-17T06:34:21.441Z,2451.00
2023-03-17T06:35:21.444Z,2499.00
2023-03-17T06:36:21.439Z,2638.00
2023-03-17T06:37:21.448Z,2682.00
2023-03-17T06:38:21.477Z,2735.00
2023-03-17T06:39:21.459Z,2685.00
2023-03-17T06:40:21.470Z,2796.00
2023-03-17T06:41:21.469Z,2992.00
2023-03-17T06:42:21.147Z,2869.00
2023-03-17T06:43:21.157Z,2806.00
2023-03-17T06:44:21.199Z,2800.00
2023-03-17T06:45:21.291Z,2830.00
2023-03-17T06:46:21.170Z,2888.00
2023-03-17T06:47:21.209Z,2927.00
2023-03-17T06:48:21.392Z,2944.00
2023-03-17T06:49:21.206Z,3079.00
2023-03-17T06:50:21.113Z,3207.00
2023-03-17T06:51:21.126Z,3328.00
2023-03-17T06:52:21.136Z,3535.00
2023-03-17T06:53:21.113Z,3731.00
2023-03-17T06:54:21.086Z,3563.00
2023-03-17T06:55:21.173Z,3756.00
2023-03-17T06:56:29.781Z,3865.00
2023-03-17T06:57:21.055Z,3845.00
2023-03-17T06:58:21.056Z,3879.00
2023-03-17T06:59:21.053Z,3816.00
2023-03-17T07:00:21.208Z,3951.00
2023-03-17T07:01:21.038Z,3929.00
2023-03-17T07:02:21.013Z,4190.00
2023-03-17T07:03:21.096Z,3793.00
2023-03-17T07:04:21.040Z,4114.00
2023-03-17T07:05:21.010Z,4155.00
2023-03-17T07:06:20.972Z,4221.00
2023-03-17T07:07:20.990Z,4288.00
2023-03-17T07:08:21.008Z,4264.00
2023-03-17T07:09:20.969Z,4325.00
2023-03-17T07:10:20.943Z,4444.00
2023-03-17T07:11:20.951Z,4633.00
2023-03-17T07:12:21.286Z,4652.00
2023-03-17T07:13:21.019Z,4792.00
2023-03-17T07:14:20.940Z,4888.00
2023-03-17T07:15:21.412Z,4937.00
2023-03-17T07:16:21.154Z,4756.00
2023-03-17T07:17:20.915Z,4894.00
2023-03-17T07:18:20.921Z,4766.00
2023-03-17T07:19:21.166Z,4797.00
2023-03-17T07:20:21.548Z,4726.00
2023-03-17T07:21:21.566Z,4730.00
2023-03-17T07:22:21.328Z,4909.00
2023-03-17T07:23:21.137Z,4496.00
2023-03-17T07:24:21.098Z,4797.00
2023-03-17T07:25:21.557Z,4600.00
2023-03-17T07:26:20.965Z,4751.00
2023-03-17T07:27:22.869Z,4685.00
2023-03-17T07:28:21.382Z,4763.00
2023-03-17T07:29:21.439Z,4723.00
2023-03-17T07:30:20.988Z,4677.00
2023-03-17T07:31:21.673Z,4803.00
2023-03-17T07:32:20.830Z,4752.00
2023-03-17T07:33:21.011Z,4785.00
2023-03-17T07:34:21.675Z,4743.00
2023-03-17T07:35:21.281Z,4840.00
2023-03-17T07:36:21.698Z,4841.00
2023-03-17T07:37:20.870Z,4941.00
2023-03-17T07:38:21.444Z,4843.00
2023-03-17T07:39:20.774Z,4999.00
2023-03-17T07:40:21.699Z,5080.00
2023-03-17T07:41:21.084Z,5075.00
2023-03-17T07:42:20.732Z,5132.00
2023-03-17T07:43:20.867Z,5178.00
2023-03-17T07:44:20.873Z,5013.00
2023-03-17T07:45:20.923Z,5199.00
2023-03-17T07:46:20.713Z,5103.00
2023-03-17T07:47:20.850Z,5189.00
2023-03-17T07:48:20.755Z,5051.00
2023-03-17T07:49:34.001Z,4998.00
2023-03-17T07:50:20.920Z,5219.00
2023-03-17T07:51:20.941Z,5266.00
2023-03-17T07:52:20.976Z,5299.00
2023-03-17T07:53:20.943Z,5328.00
2023-03-17T07:54:20.984Z,5385.00
2023-03-17T07:55:21.282Z,5439.00
2023-03-17T07:56:21.193Z,5434.00
2023-03-17T07:57:20.658Z,5521.00
2023-03-17T07:58:20.635Z,5496.00
2023-03-17T07:59:21.321Z,5502.00
2023-03-17T08:00:20.624Z,5536.00
2023-03-17T08:01:20.603Z,5566.00
2023-03-17T08:02:20.642Z,5512.00
2023-03-17T08:03:20.821Z,5591.00
2023-03-17T08:04:20.619Z,5648.00
2023-03-17T08:05:20.581Z,5655.00
2023-03-17T08:06:20.558Z,5867.00
2023-03-17T08:07:20.561Z,5799.00
2023-03-17T08:08:20.547Z,5931.00
2023-03-17T08:09:20.541Z,5888.00
2023-03-17T08:10:20.534Z,5984.00
2023-03-17T08:11:20.520Z,6002.00
2023-03-17T08:12:21.060Z,6050.00
2023-03-17T08:13:20.510Z,6295.00
2023-03-17T08:14:21.489Z,6399.00
2023-03-17T08:15:20.499Z,6258.00
2023-03-17T08:16:20.524Z,6602.00
2023-03-17T08:17:20.484Z,6729.00
2023-03-17T08:18:20.508Z,6646.00
2023-03-17T08:19:20.550Z,6530.00
2023-03-17T08:20:20.475Z,6555.00
2023-03-17T08:21:20.507Z,6603.00
2023-03-17T08:22:20.446Z,6958.00
2023-03-17T08:23:20.455Z,6415.00
2023-03-17T08:24:20.603Z,6919.00
2023-03-17T08:25:20.499Z,7094.00
2023-03-17T08:26:20.461Z,7374.00
2023-03-17T08:27:20.436Z,7909.00
2023-03-17T08:28:20.435Z,7850.00
2023-03-17T08:29:20.422Z,7044.00
2023-03-17T08:30:20.406Z,7515.00
2023-03-17T08:31:20.447Z,7361.00
2023-03-17T08:32:20.444Z,7914.00
2023-03-17T08:33:20.721Z,8433.00
2023-03-17T08:34:20.402Z,9032.00
2023-03-17T08:35:21.835Z,7589.00
2023-03-17T08:36:20.354Z,7843.00
2023-03-17T08:37:20.336Z,8044.00
2023-03-17T08:38:20.352Z,8838.00
2023-03-17T08:39:20.339Z,9229.00
2023-03-17T08:40:20.322Z,8724.00
2023-03-17T08:41:20.349Z,8813.00
2023-03-17T08:42:20.324Z,9357.00
2023-03-17T08:43:20.306Z,9123.00
2023-03-17T08:44:20.336Z,9209.00
2023-03-17T08:45:20.285Z,9451.00
2023-03-17T08:46:20.334Z,9418.00
2023-03-17T08:47:20.305Z,9421.00
2023-03-17T08:48:20.263Z,9546.00
2023-03-17T08:49:20.269Z,9645.00
2023-03-17T08:50:20.317Z,9592.00
2023-03-17T08:51:23.682Z,9635.00
2023-03-17T08:52:20.238Z,9820.00
2023-03-17T08:53:20.516Z,9726.00
2023-03-17T08:54:20.528Z,9894.00
2023-03-17T08:55:20.227Z,9657.00
2023-03-17T08:56:20.212Z,9173.00
2023-03-17T08:57:20.235Z,8856.00
2023-03-17T08:58:20.220Z,8674.00
2023-03-17T08:59:20.176Z,8598.00
2023-03-17T09:00:20.233Z,8388.00
2023-03-17T09:01:20.267Z,7992.00
2023-03-17T09:02:20.617Z,8142.00
2023-03-17T09:03:20.220Z,8411.00
2023-03-17T09:04:20.165Z,8613.00
2023-03-17T09:05:20.545Z,8953.00
2023-03-17T09:06:20.168Z,9327.00
2023-03-17T09:07:20.874Z,9211.00
2023-03-17T09:08:20.296Z,9124.00
2023-03-17T09:09:20.117Z,9170.00
2023-03-17T09:10:20.123Z,9398.00
2023-03-17T09:11:20.102Z,9560.00
2023-03-17T09:12:20.102Z,9421.00
2023-03-17T09:13:20.149Z,9188.00
2023-03-17T09:14:20.680Z,9317.00
2023-03-17T09:15:20.093Z,9563.00
2023-03-17T09:16:20.124Z,9726.00
2023-03-17T09:17:20.827Z,9866.00
2023-03-17T09:18:22.004Z,10275.00
2023-03-17T09:19:20.045Z,10602.00
2023-03-17T09:20:20.264Z,10753.00
2023-03-17T09:21:20.023Z,11010.00
2023-03-17T09:22:20.737Z,11526.00
2023-03-17T09:23:20.733Z,11525.00
2023-03-17T09:24:20.030Z,11540.00
2023-03-17T09:25:20.012Z,11285.00
2023-03-17T09:26:19.997Z,11279.00
2023-03-17T09:27:20.804Z,11401.00
2023-03-17T09:28:20.791Z,11306.00
2023-03-17T09:29:19.961Z,11122.00
2023-03-17T09:30:20.225Z,10871.00
2023-03-17T09:31:20.028Z,10588.00
2023-03-17T09:32:19.988Z,10436.00
2023-03-17T09:33:20.023Z,9916.00
2023-03-17T09:34:20.307Z,9763.00
2023-03-17T09:35:20.000Z,9293.00
2023-03-17T09:36:20.011Z,9395.00
2023-03-17T09:37:22.547Z,9161.00
2023-03-17T09:38:19.948Z,8955.00
2023-03-17T09:39:20.058Z,9081.00
2023-03-17T09:40:20.256Z,8859.00
2023-03-17T09:41:20.243Z,9308.00
2023-03-17T09:42:20.271Z,9343.00
2023-03-17T09:43:20.266Z,8693.00
2023-03-17T09:44:19.882Z,8630.00
2023-03-17T09:45:20.471Z,9212.00
2023-03-17T09:46:20.566Z,9863.00
2023-03-17T09:47:20.823Z,10461.00
2023-03-17T09:48:19.907Z,9598.00
2023-03-17T09:49:20.537Z,9636.00
2023-03-17T09:50:20.718Z,9553.00
2023-03-17T09:51:20.720Z,9272.00
2023-03-17T09:52:20.738Z,9286.00
2023-03-17T09:53:20.097Z,9281.00
2023-03-17T09:54:20.858Z,9389.00
2023-03-17T09:55:19.798Z,9349.00
2023-03-17T09:56:20.118Z,9557.00
2023-03-17T09:57:19.779Z,9485.00
2023-03-17T09:58:19.800Z,9299.00
2023-03-17T09:59:19.764Z,9221.00
2023-03-17T10:00:19.762Z,9474.00
2023-03-17T10:01:19.816Z,9503.00
2023-03-17T10:02:20.004Z,9334.00
2023-03-17T10:03:19.730Z,9207.00
2023-03-17T10:04:19.740Z,9278.00
2023-03-17T10:05:19.855Z,9111.00
2023-03-17T10:06:19.748Z,9245.00
2023-03-17T10:07:19.998Z,9372.00
2023-03-17T10:08:30.570Z,9712.00
2023-03-17T10:09:19.702Z,9716.00
2023-03-17T10:10:19.806Z,9867.00
2023-03-17T10:11:19.806Z,10024.00
2023-03-17T10:12:19.666Z,10338.00
2023-03-17T10:13:19.662Z,10575.00
2023-03-17T10:14:19.664Z,10689.00
2023-03-17T10:15:19.715Z,10645.00
2023-03-17T10:16:19.746Z,10837.00
2023-03-17T10:17:19.648Z,10252.00
2023-03-17T10:18:19.660Z,10567.00
2023-03-17T10:19:19.627Z,10032.00
2023-03-17T10:20:20.325Z,10038.00
2023-03-17T10:21:19.618Z,9789.00
2023-03-17T10:22:19.603Z,9876.00
2023-03-17T10:23:19.604Z,9302.00
2023-03-17T10:24:19.598Z,9110.00
2023-03-17T10:25:19.586Z,9374.00
2023-03-17T10:26:20.535Z,9642.00
2023-03-17T10:27:20.122Z,9395.00
2023-03-17T10:28:19.569Z,10194.00
2023-03-17T10:29:19.638Z,10453.00
2023-03-17T10:30:19.567Z,9911.00
2023-03-17T10:31:19.617Z,10849.00
2023-03-17T10:32:19.536Z,11279.00
2023-03-17T10:33:19.578Z,11533.00
2023-03-17T10:34:19.518Z,12190.00
2023-03-17T10:35:19.514Z,12509.00
2023-03-17T10:36:19.513Z,13219.00
2023-03-17T10:37:19.496Z,13063.00
2023-03-17T10:38:19.510Z,13878.00
2023-03-17T10:39:19.487Z,14921.00
2023-03-17T10:40:19.723Z,15161.00
2023-03-17T10:41:19.499Z,15347.00
2023-03-17T10:42:19.496Z,15526.00
2023-03-17T10:43:19.453Z,15910.00
2023-03-17T10:44:19.457Z,15692.00
2023-03-17T10:45:19.425Z,15540.00
2023-03-17T10:46:19.617Z,15975.00
2023-03-17T10:47:19.424Z,15622.00
2023-03-17T10:48:19.412Z,15730.00
2023-03-17T10:49:19.401Z,16189.00
2023-03-17T10:50:19.496Z,17122.00
2023-03-17T10:51:19.471Z,17529.00
2023-03-17T10:52:19.399Z,17604.00
2023-03-17T10:53:19.384Z,17987.00
2023-03-17T10:54:19.402Z,18058.00
2023-03-17T10:55:19.496Z,18309.00
2023-03-17T10:56:19.422Z,16926.00
2023-03-17T10:57:19.411Z,18892.00
2023-03-17T10:58:19.384Z,18255.00
2023-03-17T10:59:19.404Z,17456.00
2023-03-17T11:00:19.382Z,18109.00
2023-03-17T11:01:19.402Z,18250.00
2023-03-17T11:02:19.313Z,19003.00
2023-03-17T11:03:19.311Z,17932.00
2023-03-17T11:04:19.318Z,17252.00
2023-03-17T11:05:19.285Z,17825.00
2023-03-17T11:06:19.467Z,18109.00
2023-03-17T11:07:19.286Z,18528.00
2023-03-17T11:08:19.274Z,18393.00
2023-03-17T11:09:19.263Z,17904.00
2023-03-17T11:10:19.317Z,18103.00
2023-03-17T11:11:20.591Z,18393.00
2023-03-17T11:12:19.247Z,18017.00
2023-03-17T11:13:19.244Z,17912.00
2023-03-17T11:14:19.617Z,17907.00
2023-03-17T11:15:19.223Z,16798.00
2023-03-17T11:16:19.318Z,17409.00
2023-03-17T11:17:19.214Z,16206.00
2023-03-17T11:18:19.245Z,17806.00
2023-03-17T11:19:19.204Z,17820.00
2023-03-17T11:20:19.247Z,17746.00
2023-03-17T11:21:19.214Z,18216.00
2023-03-17T11:22:19.225Z,17524.00
2023-03-17T11:23:19.189Z,18015.00
2023-03-17T11:24:19.273Z,18103.00
2023-03-17T11:25:19.162Z,19200.00
2023-03-17T11:26:19.149Z,21546.00
2023-03-17T11:27:19.164Z,20981.00
2023-03-17T11:28:19.143Z,20928.00
2023-03-17T11:29:19.128Z,21626.00
2023-03-17T11:30:19.177Z,22327.00
2023-03-17T11:31:19.361Z,22216.00
2023-03-17T11:32:19.138Z,23000.00
2023-03-17T11:33:19.336Z,22582.00
2023-03-17T11:34:19.096Z,23462.00
2023-03-17T11:35:19.382Z,22861.00
2023-03-17T11:36:19.096Z,23677.00
2023-03-17T11:37:19.097Z,24048.00
2023-03-17T11:38:19.074Z,23473.00
2023-03-17T11:39:19.613Z,24095.00
2023-03-17T11:40:19.637Z,23360.00
2023-03-17T11:41:19.792Z,22464.00
2023-03-17T11:42:19.092Z,22120.00
2023-03-17T11:43:19.216Z,22519.00
2023-03-17T11:44:19.105Z,23856.00
2023-03-17T11:45:19.027Z,22500.00
2023-03-17T11:46:19.017Z,23943.00
2023-03-17T11:47:19.028Z,27624.00
2023-03-17T11:48:19.031Z,24441.00
2023-03-17T11:49:19.028Z,25473.00
2023-03-17T11:50:19.016Z,18689.00
2023-03-17T11:51:19.025Z,30539.00
2023-03-17T11:52:19.038Z,28718.00
2023-03-17T11:53:19.036Z,28647.00
2023-03-17T11:54:19.845Z,51222.00
2023-03-17T11:55:19.043Z,35273.00
2023-03-17T11:56:19.081Z,34780.00
2023-03-17T11:57:18.974Z,23172.00
2023-03-17T11:58:18.935Z,39766.00
2023-03-17T11:59:18.936Z,47725.00
2023-03-17T12:00:19.061Z,11375.00
2023-03-17T12:01:19.082Z,55646.00
2023-03-17T12:02:19.100Z,57455.00
2023-03-17T12:03:19.011Z,31794.00
2023-03-17T12:04:18.934Z,37319.00
2023-03-17T12:05:18.884Z,28566.00
2023-03-17T12:06:19.332Z,43779.00
2023-03-17T12:07:19.347Z,44542.00
2023-03-17T12:08:19.338Z,25506.00
2023-03-17T12:09:19.352Z,38318.00
2023-03-17T12:10:19.359Z,29694.00
2023-03-17T12:11:19.362Z,37670.00
2023-03-17T12:12:19.359Z,26446.00
2023-03-17T12:13:19.368Z,20813.00
2023-03-17T12:14:19.369Z,25497.00
2023-03-17T12:15:19.381Z,10144.00
2023-03-17T12:16:19.462Z,42281.00
2023-03-17T12:17:19.397Z,28553.00
2023-03-17T12:18:19.397Z,19103.00
2023-03-17T12:19:20.270Z,23455.00
2023-03-17T12:20:19.433Z,27582.00
2023-03-17T12:21:18.806Z,33612.00
2023-03-17T12:22:18.810Z,29213.00
2023-03-17T12:23:18.831Z,26785.00
2023-03-17T12:24:18.929Z,31325.00
2023-03-17T12:25:18.853Z,26249.00
2023-03-17T12:26:18.748Z,34879.00
2023-03-17T12:27:18.846Z,23580.00
2023-03-17T12:28:19.084Z,26588.00
2023-03-17T12:29:18.874Z,32989.00
2023-03-17T12:30:19.091Z,35460.00
2023-03-17T12:31:19.169Z,35334.00
2023-03-17T12:32:19.288Z,29815.00